createdAt,value
2023-06-26T00:00:59.518Z,23.70
2023-06-26T00:03:47.387Z,23.65
2023-06-26T00:06:35.027Z,23.57
2023-06-26T00:09:24.006Z,23.61
2023-06-26T00:12:11.641Z,23.58
2023-06-26T00:14:59.987Z,23.48
2023-06-26T00:17:47.623Z,23.47
2023-06-26T00:20:35.400Z,23.46
2023-06-26T00:23:23.118Z,23.31
2023-06-26T00:26:12.250Z,23.36
2023-06-26T00:29:00.032Z,23.24
2023-06-26T00:31:47.826Z,23.23
2023-06-26T00:34:35.734Z,23.15
2023-06-26T00:37:23.397Z,23.22
2023-06-26T00:40:11.755Z,23.23
2023-06-26T00:43:01.280Z,23.11
2023-06-26T00:45:48.951Z,23.03
2023-06-26T00:48:37.528Z,22.97
2023-06-26T00:51:25.429Z,22.92
2023-06-26T00:54:13.598Z,22.91
2023-06-26T00:57:01.314Z,22.88
2023-06-26T00:59:50.718Z,22.78
2023-06-26T01:02:38.527Z,22.80
2023-06-26T01:05:26.362Z,22.70
2023-06-26T01:08:15.165Z,22.69
2023-06-26T01:11:02.842Z,22.66
2023-06-26T01:13:52.720Z,22.61
2023-06-26T01:16:42.396Z,22.62
2023-06-26T01:19:33.062Z,22.52
2023-06-26T01:22:32.307Z,22.55
2023-06-26T01:25:30.639Z,22.56
2023-06-26T01:28:21.155Z,22.46
2023-06-26T01:31:09.540Z,22.53
2023-06-26T01:33:59.017Z,22.50
2023-06-26T01:36:46.949Z,22.55
2023-06-26T01:39:34.549Z,22.48
2023-06-26T01:42:22.265Z,22.43
2023-06-26T01:45:20.086Z,22.38
2023-06-26T01:48:12.538Z,22.30
2023-06-26T01:51:02.881Z,22.32
2023-06-26T01:53:56.343Z,22.21
2023-06-26T01:56:46.634Z,22.22
2023-06-26T01:59:36.150Z,22.12
2023-06-26T02:02:26.268Z,22.16
2023-06-26T02:05:15.198Z,22.12
2023-06-26T02:08:02.872Z,22.07
2023-06-26T02:10:51.729Z,22.06
2023-06-26T02:13:39.321Z,22.00
2023-06-26T02:16:26.904Z,22.10
2023-06-26T02:19:15.947Z,22.04
2023-06-26T02:22:03.697Z,22.03
2023-06-26T02:24:51.405Z,21.96
2023-06-26T02:27:39.076Z,21.95
2023-06-26T02:30:26.702Z,21.85
2023-06-26T02:33:14.401Z,21.88
2023-06-26T02:36:03.614Z,21.84
2023-06-26T02:38:51.252Z,21.81
2023-06-26T02:41:40.174Z,21.84
2023-06-26T02:44:27.896Z,21.85
2023-06-26T02:47:15.683Z,21.84
2023-06-26T02:50:06.599Z,21.75
2023-06-26T02:53:08.316Z,21.74
2023-06-26T02:55:55.990Z,21.75
2023-06-26T02:58:43.794Z,21.68
2023-06-26T03:01:31.648Z,21.71
2023-06-26T03:04:19.419Z,21.75
2023-06-26T03:07:07.618Z,21.69
2023-06-26T03:09:56.732Z,21.69
2023-06-26T03:12:44.409Z,21.70
2023-06-26T03:15:32.670Z,21.66
2023-06-26T03:18:20.515Z,21.63
2023-06-26T03:21:10.953Z,21.67
2023-06-26T03:24:00.524Z,21.65
2023-06-26T03:26:50.311Z,21.65
2023-06-26T03:29:38.166Z,21.68
2023-06-26T03:32:26.194Z,21.69
2023-06-26T03:35:13.924Z,21.69
2023-06-26T03:38:02.855Z,21.66
2023-06-26T03:40:50.651Z,21.68
2023-06-26T03:43:39.684Z,21.63
2023-06-26T03:46:41.145Z,21.65
2023-06-26T03:49:28.940Z,21.65
2023-06-26T03:52:17.189Z,21.64
2023-06-26T03:55:05.873Z,21.67
2023-06-26T03:57:53.803Z,21.67
2023-06-26T04:00:42.931Z,21.72
2023-06-26T04:03:30.652Z,21.74
2023-06-26T04:06:18.453Z,21.76
2023-06-26T04:09:06.313Z,21.76
2023-06-26T04:11:54.231Z,21.75
2023-06-26T04:14:41.877Z,21.73
2023-06-26T04:17:31.378Z,21.85
2023-06-26T04:20:19.095Z,21.86
2023-06-26T04:23:06.860Z,21.89
2023-06-26T04:25:54.819Z,21.95
2023-06-26T04:28:54.858Z,21.92
2023-06-26T04:31:42.690Z,21.92
2023-06-26T04:34:31.733Z,22.03
2023-06-26T04:37:19.742Z,22.07
2023-06-26T04:40:08.598Z,22.13
2023-06-26T04:42:56.274Z,22.14
2023-06-26T04:45:44.179Z,22.21
2023-06-26T04:48:32.001Z,22.23
2023-06-26T04:51:21.093Z,22.31
2023-06-26T04:54:08.813Z,22.32
2023-06-26T04:56:56.691Z,22.40
2023-06-26T04:59:44.382Z,22.46
2023-06-26T05:02:32.209Z,22.53
2023-06-26T05:05:20.004Z,22.67
2023-06-26T05:08:20.041Z,22.76
2023-06-26T05:11:09.044Z,23.00
2023-06-26T05:13:56.889Z,23.05
2023-06-26T05:16:44.644Z,23.04
2023-06-26T05:19:32.318Z,23.08
2023-06-26T05:22:21.809Z,23.06
2023-06-26T05:25:12.122Z,23.07
2023-06-26T05:28:00.732Z,23.15
2023-06-26T05:30:48.980Z,23.15
2023-06-26T05:33:38.039Z,23.17
2023-06-26T05:36:26.288Z,23.17
2023-06-26T05:39:14.524Z,23.28
2023-06-26T05:42:04.708Z,23.25
2023-06-26T05:44:52.289Z,23.31
2023-06-26T05:47:40.197Z,23.42
2023-06-26T05:50:29.451Z,23.48
2023-06-26T05:53:17.651Z,23.57
2023-06-26T05:56:05.996Z,23.51
2023-06-26T05:58:55.599Z,23.60
2023-06-26T06:01:43.213Z,23.63
2023-06-26T06:04:31.025Z,23.84
2023-06-26T06:07:18.723Z,23.81
2023-06-26T06:10:07.379Z,24.00
2023-06-26T06:12:54.913Z,24.08
2023-06-26T06:15:44.175Z,24.14
2023-06-26T06:18:31.890Z,24.24
2023-06-26T06:21:19.586Z,24.30
2023-06-26T06:24:07.568Z,24.41
2023-06-26T06:26:55.348Z,24.49
2023-06-26T06:29:43.036Z,24.42
2023-06-26T06:32:32.002Z,24.66
2023-06-26T06:35:19.966Z,24.77
2023-06-26T06:38:07.765Z,24.79
2023-06-26T06:40:55.449Z,24.96
2023-06-26T06:43:43.475Z,24.97
2023-06-26T06:46:31.117Z,25.09
2023-06-26T06:49:20.182Z,25.19
2023-06-26T06:52:07.972Z,25.07
2023-06-26T06:54:57.212Z,25.37
2023-06-26T06:57:44.802Z,25.43
2023-06-26T07:00:32.556Z,25.29
2023-06-26T07:03:20.229Z,25.61
2023-06-26T07:06:09.249Z,25.72
2023-06-26T07:08:56.893Z,25.63
2023-06-26T07:11:44.548Z,25.48
2023-06-26T07:14:32.297Z,25.66
2023-06-26T07:17:19.803Z,25.56
2023-06-26T07:20:07.949Z,25.80
2023-06-26T07:22:56.925Z,25.83
2023-06-26T07:25:44.540Z,25.83
2023-06-26T07:28:32.125Z,25.70
2023-06-26T07:31:19.830Z,25.74
2023-06-26T07:34:07.472Z,25.68
2023-06-26T07:36:55.075Z,25.79
2023-06-26T07:39:44.035Z,26.12
2023-06-26T07:42:31.608Z,26.33
2023-06-26T07:45:19.268Z,26.34
2023-06-26T07:48:07.362Z,26.41
2023-06-26T07:50:55.265Z,26.88
2023-06-26T07:53:44.360Z,26.87
2023-06-26T07:56:52.655Z,27.12
2023-06-26T07:59:40.351Z,26.77
2023-06-26T08:02:28.081Z,26.50
2023-06-26T08:05:16.013Z,26.58
2023-06-26T08:08:03.914Z,26.44
2023-06-26T08:10:54.512Z,26.70
2023-06-26T08:13:43.585Z,26.38
2023-06-26T08:16:31.401Z,26.76
2023-06-26T08:19:19.056Z,26.70
2023-06-26T08:22:09.422Z,26.16
2023-06-26T08:24:56.971Z,25.65
2023-06-26T08:27:44.539Z,25.32
2023-06-26T08:30:34.442Z,25.11
2023-06-26T08:33:22.096Z,24.79
2023-06-26T08:36:09.750Z,23.84
2023-06-26T08:38:57.572Z,23.32
2023-06-26T08:41:45.466Z,22.09
2023-06-26T08:44:33.503Z,20.94
2023-06-26T08:47:23.657Z,20.44
2023-06-26T08:50:13.604Z,20.39
2023-06-26T08:53:06.628Z,20.39
2023-06-26T08:55:55.492Z,20.36
2023-06-26T08:58:44.085Z,20.46
2023-06-26T09:01:33.292Z,20.64
2023-06-26T09:04:23.841Z,20.87
2023-06-26T09:07:11.478Z,21.08
2023-06-26T09:09:59.534Z,21.08
2023-06-26T09:12:47.815Z,21.00
2023-06-26T09:15:39.328Z,21.22
2023-06-26T09:18:27.012Z,21.30
2023-06-26T09:21:16.240Z,21.74
2023-06-26T09:24:04.443Z,22.09
2023-06-26T09:26:52.713Z,23.10
2023-06-26T09:29:40.577Z,23.33
2023-06-26T09:32:28.536Z,22.96
2023-06-26T09:35:16.260Z,22.69
2023-06-26T09:38:05.541Z,22.65
2023-06-26T09:40:53.263Z,23.28
2023-06-26T09:43:46.836Z,24.18
2023-06-26T09:46:35.254Z,24.04
2023-06-26T09:49:25.007Z,23.99
2023-06-26T09:52:15.326Z,23.77
2023-06-26T09:55:11.363Z,23.79
2023-06-26T09:58:07.884Z,24.12
2023-06-26T10:00:55.562Z,24.78
2023-06-26T10:03:44.002Z,25.34
2023-06-26T10:06:34.727Z,25.99
2023-06-26T10:12:19.038Z,25.21
2023-06-26T10:15:09.827Z,24.53
2023-06-26T10:17:58.134Z,24.65
2023-06-26T10:20:49.149Z,25.86
2023-06-26T10:23:39.952Z,25.51
2023-06-26T10:26:29.574Z,25.73
2023-06-26T10:29:21.281Z,25.95
2023-06-26T10:32:13.792Z,24.95
2023-06-26T10:35:01.625Z,25.08
2023-06-26T10:37:50.789Z,24.67
2023-06-26T10:40:42.966Z,24.28
2023-06-26T10:43:31.168Z,24.95
2023-06-26T10:46:23.286Z,24.50
2023-06-26T10:49:13.724Z,25.50
2023-06-26T10:52:02.179Z,24.97
2023-06-26T10:54:49.793Z,25.40
2023-06-26T10:57:39.153Z,25.95
2023-06-26T11:00:26.892Z,25.65
2023-06-26T11:03:25.241Z,27.08
2023-06-26T11:06:13.963Z,27.30
2023-06-26T11:09:07.103Z,27.71
2023-06-26T11:12:01.286Z,27.73
2023-06-26T11:14:49.795Z,27.24
2023-06-26T11:17:38.365Z,26.28
2023-06-26T11:20:28.534Z,27.47
2023-06-26T11:23:23.148Z,28.40
2023-06-26T11:26:18.179Z,27.86
2023-06-26T11:29:06.004Z,26.40
2023-06-26T11:32:00.931Z,25.23
2023-06-26T11:34:49.658Z,25.01
2023-06-26T11:37:38.737Z,26.18
2023-06-26T11:40:27.193Z,26.56
2023-06-26T11:43:14.823Z,27.77
2023-06-26T11:46:02.507Z,27.62
2023-06-26T11:48:50.771Z,26.53
2023-06-26T11:51:38.547Z,27.82
2023-06-26T11:54:28.831Z,27.63
2023-06-26T11:57:16.910Z,27.66
2023-06-26T12:00:14.641Z,28.69
2023-06-26T12:03:02.607Z,28.82
2023-06-26T12:05:50.642Z,28.15
2023-06-26T12:08:38.449Z,28.28
2023-06-26T12:11:30.582Z,28.51
2023-06-26T12:14:20.946Z,27.27
2023-06-26T12:17:11.145Z,26.01
2023-06-26T12:19:58.842Z,27.87
2023-06-26T12:22:47.368Z,29.02
2023-06-26T12:25:35.043Z,27.46
2023-06-26T12:28:24.098Z,26.30
2023-06-26T12:31:15.642Z,27.82
2023-06-26T12:34:09.514Z,28.55
2023-06-26T12:37:02.534Z,28.80
2023-06-26T12:39:51.772Z,26.68
2023-06-26T12:42:39.449Z,25.98
2023-06-26T12:45:33.003Z,26.17
2023-06-26T12:48:21.302Z,25.35
2023-06-26T12:51:10.445Z,24.82
2023-06-26T12:53:58.066Z,25.31
2023-06-26T12:56:45.650Z,25.84
2023-06-26T12:59:34.194Z,25.66
2023-06-26T13:02:23.446Z,26.57
2023-06-26T13:05:11.436Z,26.73
2023-06-26T13:07:59.100Z,27.70
2023-06-26T13:10:46.769Z,28.25
2023-06-26T13:13:34.420Z,29.14
2023-06-26T13:16:22.057Z,28.67
2023-06-26T13:19:11.131Z,28.41
2023-06-26T13:22:01.071Z,27.43
2023-06-26T13:24:48.658Z,27.22
2023-06-26T13:27:36.209Z,27.50
2023-06-26T13:30:23.772Z,27.38
2023-06-26T13:33:11.588Z,27.53
2023-06-26T13:36:00.767Z,27.34
2023-06-26T13:38:48.619Z,28.10
2023-06-26T13:41:36.161Z,27.79
2023-06-26T13:44:28.445Z,27.19
2023-06-26T13:47:24.006Z,28.50
2023-06-26T13:50:11.804Z,29.88
2023-06-26T13:53:00.784Z,29.21
2023-06-26T13:55:48.666Z,28.28
2023-06-26T13:58:36.975Z,25.75
2023-06-26T14:01:24.610Z,25.27
2023-06-26T14:04:12.302Z,24.63
2023-06-26T14:06:59.920Z,24.82
2023-06-26T14:09:48.940Z,25.08
2023-06-26T14:12:36.582Z,25.25
2023-06-26T14:15:24.367Z,25.39
2023-06-26T14:18:12.038Z,24.88
2023-06-26T14:20:59.826Z,24.79
2023-06-26T14:23:47.575Z,24.71
2023-06-26T14:26:36.603Z,24.20
2023-06-26T14:29:24.244Z,24.95
2023-06-26T14:32:12.074Z,25.28
2023-06-26T14:34:59.790Z,24.27
2023-06-26T14:37:49.371Z,24.03
2023-06-26T14:40:37.233Z,24.01
2023-06-26T14:43:26.884Z,24.15
2023-06-26T14:46:15.162Z,24.25
2023-06-26T14:49:06.935Z,24.23
2023-06-26T14:51:54.647Z,24.89
2023-06-26T14:54:42.262Z,25.33
2023-06-26T14:57:30.719Z,25.76
2023-06-26T15:00:20.558Z,25.74
2023-06-26T15:03:08.330Z,24.86
2023-06-26T15:05:56.055Z,24.01
2023-06-26T15:08:43.979Z,24.13
2023-06-26T15:11:31.840Z,23.89
2023-06-26T15:14:19.538Z,23.69
2023-06-26T15:17:09.980Z,24.27
2023-06-26T15:19:58.148Z,24.05
2023-06-26T15:22:46.249Z,24.11
2023-06-26T15:25:33.897Z,23.98
2023-06-26T15:28:21.428Z,23.94
2023-06-26T15:31:09.486Z,23.95
2023-06-26T15:33:58.565Z,24.27
2023-06-26T15:36:46.173Z,24.79
2023-06-26T15:39:34.053Z,24.51
2023-06-26T15:42:21.884Z,23.91
2023-06-26T15:45:10.203Z,24.33
2023-06-26T15:47:57.902Z,24.31
2023-06-26T15:50:49.991Z,23.57
2023-06-26T15:53:39.599Z,23.66
2023-06-26T15:56:27.330Z,24.07
2023-06-26T15:59:14.889Z,24.36
2023-06-26T16:02:02.570Z,24.61
2023-06-26T16:04:50.285Z,24.49
2023-06-26T16:07:55.715Z,24.38
2023-06-26T16:10:44.578Z,23.70
2023-06-26T16:13:32.425Z,23.36
2023-06-26T16:16:20.659Z,23.43
2023-06-26T16:19:08.406Z,23.71
2023-06-26T16:21:56.129Z,25.69
2023-06-26T16:24:45.418Z,25.85
2023-06-26T16:27:33.320Z,26.56
2023-06-26T16:30:21.219Z,26.35
2023-06-26T16:33:12.145Z,27.12
2023-06-26T16:36:02.826Z,26.82
2023-06-26T16:38:50.520Z,26.61
2023-06-26T16:41:39.558Z,25.75
2023-06-26T16:44:27.335Z,24.36
2023-06-26T16:47:15.330Z,24.18
2023-06-26T16:50:03.065Z,23.63
2023-06-26T16:52:51.246Z,25.29
2023-06-26T16:55:41.873Z,26.02
2023-06-26T16:58:31.008Z,26.54
2023-06-26T17:01:18.923Z,26.18
2023-06-26T17:04:06.671Z,25.84
2023-06-26T17:06:54.324Z,25.23
2023-06-26T17:09:42.534Z,24.70
2023-06-26T17:12:30.323Z,24.54
2023-06-26T17:15:19.770Z,24.06
2023-06-26T17:18:07.748Z,24.37
2023-06-26T17:20:57.913Z,24.55
2023-06-26T17:23:45.782Z,23.10
2023-06-26T17:26:33.869Z,23.36
2023-06-26T17:29:21.598Z,22.91
2023-06-26T17:32:16.906Z,22.08
2023-06-26T17:35:09.955Z,22.53
2023-06-26T17:37:57.667Z,22.73
2023-06-26T17:40:45.262Z,22.81
2023-06-26T17:43:32.916Z,22.69
2023-06-26T17:46:20.681Z,22.69
2023-06-26T17:49:12.152Z,22.95
2023-06-26T17:52:02.983Z,22.39
2023-06-26T17:54:50.603Z,23.40
2023-06-26T17:57:38.263Z,23.80
2023-06-26T18:00:25.950Z,22.75
2023-06-26T18:03:13.693Z,22.29
2023-06-26T18:06:02.800Z,22.45
2023-06-26T18:08:50.922Z,22.98
2023-06-26T18:11:38.660Z,22.94
2023-06-26T18:14:26.318Z,23.08
2023-06-26T18:17:15.060Z,22.87
2023-06-26T18:20:02.772Z,22.70
2023-06-26T18:22:51.937Z,22.49
2023-06-26T18:25:39.641Z,22.35
2023-06-26T18:28:29.180Z,22.36
2023-06-26T18:31:16.866Z,22.49
2023-06-26T18:34:04.567Z,22.41
2023-06-26T18:36:52.177Z,22.21
2023-06-26T18:39:41.192Z,21.81
2023-06-26T18:42:29.010Z,21.35
2023-06-26T18:45:16.827Z,21.52
2023-06-26T18:48:05.175Z,21.16
2023-06-26T18:50:52.858Z,20.59
2023-06-26T18:53:40.493Z,20.57
2023-06-26T18:56:30.059Z,20.41
2023-06-26T18:59:17.717Z,20.16
2023-06-26T19:02:06.232Z,20.12
2023-06-26T19:04:53.996Z,20.00
2023-06-26T19:07:41.851Z,19.80
2023-06-26T19:10:29.796Z,19.80
2023-06-26T19:13:18.807Z,19.62
2023-06-26T19:16:06.690Z,19.75
2023-06-26T19:18:54.347Z,19.65
2023-06-26T19:21:41.961Z,19.50
2023-06-26T19:24:29.662Z,19.49
2023-06-26T19:27:17.326Z,19.33
2023-06-26T19:30:07.822Z,19.28
2023-06-26T19:32:55.410Z,19.16
2023-06-26T19:35:43.196Z,19.15
2023-06-26T19:38:30.874Z,19.10
2023-06-26T19:41:18.562Z,18.97
2023-06-26T19:44:06.174Z,18.88
2023-06-26T19:46:55.331Z,18.82
2023-06-26T19:49:42.993Z,18.74
2023-06-26T19:52:30.686Z,18.68
2023-06-26T19:55:18.248Z,18.58
2023-06-26T19:58:05.978Z,18.54
2023-06-26T20:00:53.638Z,18.48
2023-06-26T20:03:42.777Z,18.44
2023-06-26T20:06:30.572Z,18.41
2023-06-26T20:09:18.244Z,18.37
2023-06-26T20:12:06.837Z,18.35
2023-06-26T20:14:54.637Z,18.32
2023-06-26T20:17:42.629Z,18.17
2023-06-26T20:20:31.662Z,18.12
2023-06-26T20:23:19.193Z,18.10
2023-06-26T20:26:09.439Z,17.98
2023-06-26T20:28:57.164Z,17.94
2023-06-26T20:31:48.427Z,17.95
2023-06-26T20:34:36.584Z,17.82
2023-06-26T20:37:25.594Z,17.74
2023-06-26T20:40:14.590Z,17.65
2023-06-26T20:43:02.763Z,17.56
2023-06-26T20:45:50.880Z,17.53
2023-06-26T20:48:39.001Z,17.43
2023-06-26T20:51:27.437Z,17.42
2023-06-26T20:54:17.095Z,17.32
2023-06-26T20:57:07.833Z,17.28
2023-06-26T20:59:57.282Z,17.21
2023-06-26T21:02:45.067Z,17.17
2023-06-26T21:05:32.773Z,17.08
2023-06-26T21:08:20.455Z,17.19
2023-06-26T21:11:09.499Z,17.03
2023-06-26T21:13:57.152Z,17.01
2023-06-26T21:16:45.362Z,16.99
2023-06-26T21:19:32.979Z,17.04
2023-06-26T21:22:20.647Z,16.94
2023-06-26T21:25:08.990Z,16.84
2023-06-26T21:27:58.012Z,16.86
2023-06-26T21:30:45.648Z,16.86
2023-06-26T21:33:33.281Z,16.78
2023-06-26T21:36:20.953Z,16.84
2023-06-26T21:39:08.615Z,16.74
2023-06-26T21:41:56.480Z,16.69
2023-06-26T21:44:45.594Z,16.72
2023-06-26T21:47:35.763Z,16.64
2023-06-26T21:50:23.358Z,16.64
2023-06-26T21:53:12.457Z,16.66
2023-06-26T21:56:11.924Z,16.62
2023-06-26T21:58:59.618Z,16.67
2023-06-26T22:01:48.935Z,16.55
2023-06-26T22:04:36.699Z,16.52
2023-06-26T22:07:24.306Z,16.52
2023-06-26T22:10:12.340Z,16.52
2023-06-26T22:13:00.047Z,16.50
2023-06-26T22:15:47.821Z,16.50
2023-06-26T22:18:36.850Z,16.46
2023-06-26T22:21:24.844Z,16.38
2023-06-26T22:24:12.544Z,16.36
2023-06-26T22:27:00.195Z,16.43
2023-06-26T22:29:47.780Z,16.22
2023-06-26T22:32:35.482Z,16.16
2023-06-26T22:35:24.573Z,16.14
2023-06-26T22:38:12.234Z,16.19
2023-06-26T22:41:01.152Z,16.03
2023-06-26T22:43:48.826Z,16.02
2023-06-26T22:46:36.470Z,15.95
2023-06-26T22:49:24.050Z,15.97
2023-06-26T22:52:13.295Z,16.00
2023-06-26T22:55:01.143Z,15.91
2023-06-26T22:57:49.007Z,15.85
2023-06-26T23:00:36.635Z,15.85
2023-06-26T23:03:24.383Z,15.80
2023-06-26T23:06:12.071Z,15.85
2023-06-26T23:09:01.066Z,15.79
2023-06-26T23:11:48.735Z,15.81
2023-06-26T23:14:36.651Z,15.73
2023-06-26T23:17:24.387Z,15.71
2023-06-26T23:20:12.728Z,15.61
2023-06-26T23:23:00.405Z,15.65
2023-06-26T23:25:49.424Z,15.56
2023-06-26T23:28:36.987Z,15.53
2023-06-26T23:31:24.763Z,15.59
2023-06-26T23:34:12.421Z,15.54
2023-06-26T23:37:00.032Z,15.55
2023-06-26T23:39:47.850Z,15.54
2023-06-26T23:42:37.254Z,15.54
2023-06-26T23:45:27.300Z,15.49
2023-06-26T23:48:14.932Z,15.52
2023-06-26T23:51:02.633Z,15.42
2023-06-26T23:53:50.251Z,15.38
2023-06-26T23:56:37.984Z,15.44
2023-06-26T23:59:27.109Z,15.39
